Time;durP1;ratioP1;P1;durP2;ratioP2;P2;SDS_P1;SDS_P2;PMS_P1;PMS_P2;Temp;Humidity;BMP_temperature;BMP_pressure;BME280_temperature;BME280_humidity;BME280_pressure;Samples;Min_cycle;Max_cycle;Signal;HPM_P1;HPM_P2
2022/08/01 05:00:22;;;;;;;3.77;3.47;;;22.50;97.20;;;;;;1695007;29;20207;-76
2022/08/01 05:01:13;;;;;;;3.33;3.03;;;22.50;97.20;;;;;;1695035;29;20199;-76
2022/08/01 05:02:04;;;;;;;3.77;3.47;;;22.50;97.20;;;;;;1695086;29;20244;-76
2022/08/01 05:02:55;;;;;;;3.75;3.45;;;22.50;97.20;;;;;;1695032;29;20458;-76
2022/08/01 05:03:47;;;;;;;3.00;2.80;;;22.50;97.20;;;;;;1695128;29;20231;-76
2022/08/01 05:04:39;;;;;;;3.15;2.95;;;22.50;97.20;;;;;;1694720;29;20255;-76
2022/08/01 05:05:31;;;;;;;3.58;3.30;;;22.50;97.20;;;;;;1695077;29;20192;-76
2022/08/01 05:06:22;;;;;;;3.70;3.40;;;22.50;97.20;;;;;;1694818;29;20207;-76
2022/08/01 05:07:15;;;;;;;4.10;3.37;;;22.50;97.20;;;;;;1694695;29;20279;-76
2022/08/01 05:08:06;;;;;;;5.13;3.47;;;22.50;97.20;;;;;;1694704;29;20208;-76
2022/08/01 05:08:58;;;;;;;3.60;3.37;;;22.50;97.20;;;;;;1694934;29;20295;-76
2022/08/01 05:09:48;;;;;;;3.65;3.35;;;22.50;97.20;;;;;;1695003;29;21078;-76
2022/08/01 05:10:40;;;;;;;3.80;3.10;;;22.60;97.20;;;;;;1694906;29;20654;-76
2022/08/01 05:11:31;;;;;;;3.92;3.42;;;22.50;97.20;;;;;;1694949;29;20680;-76
2022/08/01 05:12:23;;;;;;;3.47;3.27;;;22.60;97.20;;;;;;1694964;29;20641;-76
2022/08/01 05:13:13;;;;;;;4.32;3.17;;;22.60;97.20;;;;;;1694945;29;20215;-76
2022/08/01 05:14:06;;;;;;;3.50;3.20;;;22.60;97.20;;;;;;1694954;29;20294;-76
2022/08/01 05:14:57;;;;;;;3.22;2.92;;;22.60;97.20;;;;;;1695001;29;20685;-76
2022/08/01 05:15:50;;;;;;;2.93;2.67;;;22.60;97.20;;;;;;1695039;29;20558;-76
2022/08/01 05:16:41;;;;;;;3.30;3.00;;;22.60;97.20;;;;;;1694654;29;20208;-76
2022/08/01 05:17:33;;;;;;;4.20;2.92;;;22.60;97.20;;;;;;1694782;29;20203;-76
2022/08/01 05:18:24;;;;;;;3.30;3.00;;;22.60;97.20;;;;;;1694562;29;20223;-76
2022/08/01 05:19:16;;;;;;;3.40;3.10;;;22.60;97.20;;;;;;1694916;29;20250;-76
2022/08/01 05:20:07;;;;;;;3.30;3.10;;;22.60;97.20;;;;;;1694842;29;20295;-76
2022/08/01 05:20:59;;;;;;;3.75;3.15;;;22.60;97.20;;;;;;1694814;29;20295;-76
2022/08/01 05:21:50;;;;;;;4.07;3.05;;;22.70;97.20;;;;;;1694923;29;20204;-76
2022/08/01 05:22:42;;;;;;;3.50;3.20;;;22.70;97.20;;;;;;1694822;29;20227;-76
2022/08/01 05:23:33;;;;;;;2.85;2.60;;;22.70;97.20;;;;;;1694833;29;20695;-76
2022/08/01 05:24:24;;;;;;;3.27;2.97;;;22.70;97.20;;;;;;1694951;29;20574;-76
2022/08/01 05:25:15;;;;;;;3.00;2.80;;;22.70;97.20;;;;;;1694922;29;20220;-76
2022/08/01 05:26:07;;;;;;;2.93;2.73;;;22.70;97.20;;;;;;1696214;29;20204;-78
2022/08/01 05:26:58;;;;;;;3.10;2.85;;;22.70;97.20;;;;;;1697151;29;20203;-78
2022/08/01 05:27:50;;;;;;;3.50;3.10;;;22.80;97.20;;;;;;1696731;29;20196;-78
2022/08/01 05:28:41;;;;;;;2.90;2.70;;;22.80;97.20;;;;;;1695927;29;20212;-78
2022/08/01 05:29:33;;;;;;;3.40;3.10;;;22.80;97.20;;;;;;1695506;29;20283;-78
2022/08/01 05:30:24;;;;;;;3.22;2.92;;;22.80;97.20;;;;;;1694961;29;20223;-78
2022/08/01 05:31:17;;;;;;;3.13;2.67;;;22.90;97.20;;;;;;1695489;29;20219;-78
2022/08/01 05:32:08;;;;;;;5.35;2.70;;;22.90;97.20;;;;;;1695426;29;20211;-78
2022/08/01 05:32:59;;;;;;;3.47;3.00;;;22.90;97.20;;;;;;1695498;29;20208;-78
2022/08/01 05:33:50;;;;;;;2.83;2.50;;;22.90;97.20;;;;;;1695507;29;20218;-78
2022/08/01 05:34:42;;;;;;;5.70;3.20;;;22.90;97.20;;;;;;1695402;29;20229;-78
2022/08/01 05:35:33;;;;;;;3.15;2.95;;;22.90;97.20;;;;;;1695272;29;20448;-78
2022/08/01 05:36:24;;;;;;;3.13;2.67;;;22.90;97.20;;;;;;1695613;29;20208;-78
2022/08/01 05:37:15;;;;;;;2.50;2.30;;;22.90;97.20;;;;;;1695243;29;20204;-78
2022/08/01 05:38:07;;;;;;;3.30;3.00;;;23.00;97.20;;;;;;1695343;29;20315;-78
2022/08/01 05:38:58;;;;;;;3.63;2.95;;;23.00;97.20;;;;;;1695290;29;20695;-78
2022/08/01 05:39:50;;;;;;;2.67;2.43;;;23.00;97.20;;;;;;1695237;29;20637;-78
2022/08/01 05:40:40;;;;;;;3.70;2.88;;;23.00;97.20;;;;;;1695101;29;20467;-78
2022/08/01 05:41:32;;;;;;;2.93;2.70;;;23.00;97.20;;;;;;1695335;29;20235;-78
2022/08/01 05:42:23;;;;;;;3.47;3.05;;;23.00;97.20;;;;;;1695192;29;20683;-78
2022/08/01 05:43:15;;;;;;;2.83;2.63;;;23.00;97.20;;;;;;1695330;29;20633;-78
2022/08/01 05:44:06;;;;;;;2.78;2.58;;;23.00;97.20;;;;;;1695001;29;20372;-75
2022/08/01 05:44:58;;;;;;;3.30;3.00;;;23.00;97.20;;;;;;1695078;29;20271;-78
2022/08/01 05:45:48;;;;;;;2.85;2.63;;;23.00;97.20;;;;;;1695072;29;20448;-76
2022/08/01 05:46:41;;;;;;;2.67;2.47;;;23.10;97.20;;;;;;1694398;29;20302;-76
2022/08/01 05:47:32;;;;;;;4.68;3.10;;;23.10;97.20;;;;;;1694769;29;20573;-77
2022/08/01 05:48:24;;;;;;;2.93;2.73;;;23.10;97.20;;;;;;1694896;29;20307;-78
2022/08/01 05:49:16;;;;;;;2.65;2.45;;;23.10;97.20;;;;;;1694894;29;20223;-76
2022/08/01 05:50:08;;;;;;;2.88;2.45;;;23.10;97.20;;;;;;1694615;29;20208;-76
2022/08/01 05:50:59;;;;;;;3.05;2.80;;;23.10;97.20;;;;;;1694667;29;20199;-76
2022/08/01 05:51:52;;;;;;;2.80;2.60;;;23.20;97.20;;;;;;1694712;29;20699;-76
2022/08/01 05:52:43;;;;;;;3.20;2.90;;;23.20;97.20;;;;;;1694272;29;20204;-76
2022/08/01 05:53:35;;;;;;;3.13;2.83;;;23.20;97.20;;;;;;1694705;29;20200;-76
2022/08/01 05:54:25;;;;;;;2.70;2.50;;;23.20;97.20;;;;;;1694723;29;20623;-76
2022/08/01 05:55:17;;;;;;;3.03;2.77;;;23.20;97.20;;;;;;1694688;29;20200;-76
2022/08/01 05:56:09;;;;;;;3.03;2.72;;;23.20;97.20;;;;;;1694377;29;20203;-76
2022/08/01 05:57:01;;;;;;;3.95;2.80;;;23.20;97.20;;;;;;1694399;29;20220;-76
2022/08/01 05:57:52;;;;;;;2.90;2.58;;;23.30;97.20;;;;;;1694550;29;20282;-76
2022/08/01 05:58:43;;;;;;;3.90;3.37;;;23.30;97.20;;;;;;1694780;29;20290;-76
2022/08/01 05:59:34;;;;;;;3.08;2.88;;;23.30;97.20;;;;;;1694727;29;20215;-76
2022/08/01 06:00:25;;;;;;;2.67;2.47;;;23.30;97.20;;;;;;1694785;29;20219;-76
2022/08/01 06:01:18;;;;;;;3.03;2.83;;;23.30;97.20;;;;;;1694647;29;20535;-76
2022/08/01 06:02:10;;;;;;;2.92;2.72;;;23.30;97.20;;;;;;1694650;29;20463;-76
2022/08/01 06:03:02;;;;;;;3.03;2.80;;;23.30;97.20;;;;;;1694621;29;20215;-76
2022/08/01 06:03:54;;;;;;;3.22;2.88;;;23.30;97.20;;;;;;1694681;29;20217;-76
2022/08/01 06:04:45;;;;;;;2.60;2.40;;;23.30;97.20;;;;;;1694905;29;20676;-75
2022/08/01 06:05:36;;;;;;;2.67;2.47;;;23.30;97.20;;;;;;1694861;29;20661;-78
2022/08/01 06:06:28;;;;;;;4.00;3.00;;;23.40;97.20;;;;;;1695090;29;20735;-78
2022/08/01 06:07:19;;;;;;;2.80;2.60;;;23.40;97.20;;;;;;1694713;29;20740;-75
2022/08/01 06:08:10;;;;;;;3.27;2.97;;;23.40;97.20;;;;;;1694647;29;20644;-76
2022/08/01 06:09:01;;;;;;;3.00;2.80;;;23.40;97.20;;;;;;1695139;29;20211;-78
2022/08/01 06:09:53;;;;;;;2.97;2.70;;;23.40;97.20;;;;;;1694970;29;20442;-78
2022/08/01 06:10:44;;;;;;;2.53;2.33;;;23.40;97.20;;;;;;1694548;29;20208;-78
2022/08/01 06:11:35;;;;;;;3.10;2.53;;;23.50;97.20;;;;;;1695075;29;20204;-78
2022/08/01 06:12:26;;;;;;;3.10;2.90;;;23.50;97.20;;;;;;1695266;29;20262;-78
2022/08/01 06:13:19;;;;;;;3.47;3.17;;;23.50;97.20;;;;;;1694973;29;20200;-78
2022/08/01 06:14:10;;;;;;;2.92;2.63;;;23.50;97.20;;;;;;1695099;29;20298;-78
2022/08/01 06:15:01;;;;;;;3.80;2.97;;;23.50;97.20;;;;;;1694902;29;20203;-76
2022/08/01 06:15:52;;;;;;;3.65;2.40;;;23.60;97.20;;;;;;1694703;29;20484;-78
2022/08/01 06:16:44;;;;;;;2.63;2.25;;;23.60;97.20;;;;;;1694886;29;20267;-78
2022/08/01 06:17:36;;;;;;;2.90;2.70;;;23.60;97.20;;;;;;1694931;29;20208;-78
2022/08/01 06:18:28;;;;;;;2.78;2.40;;;23.60;97.20;;;;;;1694735;29;20227;-78
2022/08/01 06:19:19;;;;;;;2.60;2.40;;;23.60;97.20;;;;;;1694886;29;20604;-78
2022/08/01 06:20:11;;;;;;;2.57;2.37;;;23.70;97.20;;;;;;1694806;29;20274;-78
2022/08/01 06:21:03;;;;;;;3.28;2.70;;;23.70;97.20;;;;;;1695226;29;20634;-78
2022/08/01 06:21:54;;;;;;;2.58;2.38;;;23.70;97.20;;;;;;1695108;29;20676;-78
2022/08/01 06:22:46;;;;;;;3.27;2.37;;;23.70;97.20;;;;;;1695062;29;20569;-78
2022/08/01 06:23:37;;;;;;;3.30;2.50;;;23.70;97.20;;;;;;1694932;29;20444;-78
2022/08/01 06:24:28;;;;;;;2.40;2.20;;;23.70;97.20;;;;;;1694856;29;20197;-78
2022/08/01 06:25:19;;;;;;;2.70;2.50;;;23.80;97.20;;;;;;1694848;29;20460;-78
2022/08/01 06:26:12;;;;;;;2.50;2.30;;;23.80;97.20;;;;;;1694531;29;20716;-75
2022/08/01 06:27:03;;;;;;;2.70;2.10;;;23.80;97.20;;;;;;1693912;29;20254;-75
2022/08/01 06:27:55;;;;;;;2.65;2.45;;;23.80;97.20;;;;;;1694569;29;20212;-78
2022/08/01 06:28:45;;;;;;;2.95;2.10;;;23.80;97.20;;;;;;1694872;29;20204;-78
2022/08/01 06:29:37;;;;;;;4.03;2.50;;;23.90;97.20;;;;;;1694780;29;20199;-78
2022/08/01 06:30:28;;;;;;;2.10;2.00;;;23.90;97.20;;;;;;1694864;29;20224;-78
2022/08/01 06:31:20;;;;;;;3.90;2.00;;;23.90;97.20;;;;;;1694801;29;20315;-78
2022/08/01 06:32:10;;;;;;;3.10;2.50;;;23.90;97.20;;;;;;1694756;29;20207;-78
2022/08/01 06:33:04;;;;;;;2.17;1.97;;;23.90;97.20;;;;;;1695005;29;20208;-78
2022/08/01 06:33:56;;;;;;;2.63;2.42;;;23.90;97.20;;;;;;1694678;29;20587;-78
2022/08/01 06:34:48;;;;;;;2.80;1.97;;;23.90;97.20;;;;;;1694857;29;20692;-78
2022/08/01 06:35:39;;;;;;;2.00;1.90;;;23.90;97.20;;;;;;1694885;29;20447;-78
2022/08/01 06:36:31;;;;;;;2.90;2.13;;;23.90;97.20;;;;;;1694960;29;20442;-78
2022/08/01 06:37:22;;;;;;;2.88;2.58;;;24.00;97.20;;;;;;1694531;29;20219;-78
2022/08/01 06:38:14;;;;;;;2.20;1.90;;;24.00;97.20;;;;;;1696441;29;20207;-78
2022/08/01 06:39:04;;;;;;;4.10;1.90;;;24.00;97.20;;;;;;1699145;29;20203;-78
2022/08/01 06:39:56;;;;;;;2.37;2.10;;;24.00;97.20;;;;;;1696042;29;20207;-77
2022/08/01 06:40:47;;;;;;;2.20;1.92;;;24.00;97.20;;;;;;1695632;29;20295;-77
2022/08/01 06:41:41;;;;;;;2.83;2.00;;;24.10;97.20;;;;;;1695357;29;20215;-77
2022/08/01 06:42:35;;;;;;;2.55;2.35;;;24.10;97.20;;;;;;1694492;29;20933;-77
2022/08/01 06:43:27;;;;;;;3.60;2.20;;;24.10;97.20;;;;;;1694161;29;20700;-77
2022/08/01 06:44:18;;;;;;;2.00;1.80;;;24.10;97.20;;;;;;1694496;29;20215;-77
2022/08/01 06:45:11;;;;;;;3.55;2.20;;;24.10;97.20;;;;;;1694356;29;20208;-77
2022/08/01 06:46:02;;;;;;;4.35;1.83;;;24.20;97.20;;;;;;1694201;29;20196;-77
2022/08/01 06:46:53;;;;;;;2.58;1.80;;;24.20;97.20;;;;;;1694119;29;20208;-77
2022/08/01 06:47:45;;;;;;;3.70;1.80;;;24.20;97.20;;;;;;1694307;29;20246;-77
2022/08/01 06:48:39;;;;;;;2.60;1.80;;;24.20;97.20;;;;;;1693896;29;20223;-77
2022/08/01 06:49:30;;;;;;;2.30;2.03;;;24.20;97.20;;;;;;1694496;29;20539;-77
2022/08/01 06:50:21;;;;;;;2.10;2.00;;;24.20;97.20;;;;;;1694414;29;20227;-77
2022/08/01 06:51:17;;;;;;;2.60;2.37;;;24.30;97.20;;;;;;1694445;29;20294;-77
2022/08/01 06:52:08;;;;;;;2.85;2.30;;;24.30;97.20;;;;;;1694536;29;20451;-77
2022/08/01 06:52:59;;;;;;;4.00;2.20;;;24.30;97.20;;;;;;1694406;29;20204;-78
2022/08/01 06:53:50;;;;;;;2.43;1.70;;;24.30;97.20;;;;;;1694458;29;20554;-77
2022/08/01 06:54:42;;;;;;;2.77;2.00;;;24.40;97.20;;;;;;1694357;29;20878;-77
2022/08/01 06:55:33;;;;;;;3.22;2.50;;;24.40;97.20;;;;;;1694513;29;20270;-77
2022/08/01 06:56:25;;;;;;;1.70;1.57;;;24.40;97.20;;;;;;1694380;29;20259;-77
2022/08/01 06:57:16;;;;;;;2.67;2.10;;;24.40;97.20;;;;;;1694082;29;20937;-77
2022/08/01 06:58:07;;;;;;;4.20;2.73;;;24.50;97.20;;;;;;1694181;29;20945;-77
2022/08/01 06:59:00;;;;;;;2.60;1.90;;;24.50;97.20;;;;;;1694371;29;20475;-77
2022/08/01 06:59:52;;;;;;;3.08;2.28;;;24.50;97.20;;;;;;1694346;29;20246;-77
2022/08/01 07:00:43;;;;;;;2.00;1.80;;;24.50;97.20;;;;;;1693978;29;20215;-77
2022/08/01 07:01:34;;;;;;;2.00;1.90;;;24.50;97.20;;;;;;1694362;29;20198;-78
2022/08/01 07:02:25;;;;;;;6.78;1.90;;;24.50;97.20;;;;;;1694453;29;20208;-77
2022/08/01 07:03:17;;;;;;;2.80;2.07;;;24.60;97.20;;;;;;1694257;29;20295;-77
2022/08/01 07:04:10;;;;;;;2.92;2.10;;;24.60;97.20;;;;;;1694487;29;20696;-77
2022/08/01 07:05:01;;;;;;;2.22;2.03;;;24.60;97.20;;;;;;1694277;29;20227;-78
2022/08/01 07:05:52;;;;;;;2.33;2.13;;;24.60;97.20;;;;;;1694381;29;20294;-77
2022/08/01 07:06:43;;;;;;;2.10;1.90;;;24.60;97.20;;;;;;1694132;29;20560;-77
2022/08/01 07:07:35;;;;;;;3.37;2.20;;;24.70;97.20;;;;;;1694320;29;20929;-77
2022/08/01 07:08:26;;;;;;;3.25;2.20;;;24.70;97.20;;;;;;1694156;29;20200;-77
2022/08/01 07:09:17;;;;;;;3.37;2.30;;;24.70;97.20;;;;;;1694209;29;20295;-77
2022/08/01 07:10:09;;;;;;;2.22;1.80;;;24.70;97.20;;;;;;1694272;29;20204;-77
2022/08/01 07:11:01;;;;;;;1.95;1.80;;;24.70;97.20;;;;;;1694237;29;20203;-78
2022/08/01 07:11:52;;;;;;;2.03;1.90;;;24.80;97.20;;;;;;1695393;29;20238;-77
2022/08/01 07:12:44;;;;;;;2.13;1.83;;;24.80;97.20;;;;;;1694179;29;20207;-77
2022/08/01 07:13:35;;;;;;;2.33;1.90;;;24.80;97.20;;;;;;1694282;29;20463;-77
2022/08/01 07:14:27;;;;;;;2.20;2.00;;;24.80;97.20;;;;;;1694364;29;20534;-77
2022/08/01 07:15:20;;;;;;;2.00;1.90;;;24.80;97.20;;;;;;1694455;29;20668;-77
2022/08/01 07:16:12;;;;;;;4.57;1.80;;;24.80;97.20;;;;;;1694187;29;20869;-77
2022/08/01 07:17:02;;;;;;;2.50;1.80;;;24.90;97.20;;;;;;1693608;29;20212;-76
2022/08/01 07:17:54;;;;;;;2.40;2.20;;;24.90;97.20;;;;;;1693877;29;20448;-77
2022/08/01 07:18:45;;;;;;;1.70;1.60;;;24.90;97.20;;;;;;1694132;29;20232;-77
2022/08/01 07:19:38;;;;;;;2.20;2.10;;;25.00;97.20;;;;;;1694075;29;20543;-76
2022/08/01 07:20:29;;;;;;;1.97;1.77;;;25.00;97.20;;;;;;1694138;29;20479;-76
2022/08/01 07:21:21;;;;;;;2.23;1.80;;;25.00;97.20;;;;;;1694158;29;21027;-77
2022/08/01 07:22:13;;;;;;;2.70;2.40;;;25.00;97.20;;;;;;1693445;29;20459;-77
2022/08/01 07:23:05;;;;;;;3.23;2.10;;;25.10;97.20;;;;;;1694218;29;21016;-76
2022/08/01 07:23:56;;;;;;;1.83;1.73;;;25.10;97.20;;;;;;1694177;29;20456;-77
2022/08/01 07:24:48;;;;;;;2.10;2.00;;;25.10;97.20;;;;;;1694185;29;20735;-76
2022/08/01 07:25:39;;;;;;;2.60;2.10;;;25.20;97.20;;;;;;1694152;29;20218;-76
2022/08/01 07:26:31;;;;;;;2.17;1.97;;;25.20;97.20;;;;;;1694176;29;20547;-77
2022/08/01 07:27:21;;;;;;;2.20;2.00;;;25.20;97.20;;;;;;1693904;29;20463;-77
2022/08/01 07:28:13;;;;;;;3.30;1.97;;;25.20;97.20;;;;;;1694074;29;20529;-76
2022/08/01 07:29:04;;;;;;;2.00;1.80;;;25.30;97.20;;;;;;1694199;29;20200;-77
2022/08/01 07:29:56;;;;;;;5.93;2.37;;;25.30;97.20;;;;;;1694153;29;20539;-77
2022/08/01 07:30:47;;;;;;;2.10;1.90;;;25.30;97.20;;;;;;1694207;29;20220;-77
2022/08/01 07:31:38;;;;;;;3.23;2.07;;;25.30;97.20;;;;;;1694131;29;20952;-77
2022/08/01 07:32:30;;;;;;;2.07;1.90;;;25.30;97.20;;;;;;1694171;29;21263;-77
2022/08/01 07:33:22;;;;;;;1.90;1.70;;;25.30;97.20;;;;;;1694071;29;20447;-77
2022/08/01 07:34:13;;;;;;;2.00;1.90;;;25.30;97.20;;;;;;1693840;29;20455;-76
2022/08/01 07:35:06;;;;;;;4.03;2.10;;;25.30;97.20;;;;;;1694142;29;20826;-76
2022/08/01 07:35:58;;;;;;;2.37;2.17;;;25.30;97.20;;;;;;1694053;29;20451;-77
2022/08/01 07:36:49;;;;;;;3.93;1.80;;;25.30;97.20;;;;;;1694018;29;20448;-77
2022/08/01 07:37:41;;;;;;;2.17;1.97;;;25.30;97.20;;;;;;1693982;29;20455;-76
2022/08/01 07:38:32;;;;;;;2.20;2.03;;;25.30;97.20;;;;;;1693970;29;20451;-77
2022/08/01 07:39:24;;;;;;;2.17;1.97;;;25.30;97.20;;;;;;1694204;29;20527;-77
2022/08/01 07:40:15;;;;;;;2.35;2.15;;;25.40;97.20;;;;;;1694005;29;20711;-77
2022/08/01 07:41:07;;;;;;;2.47;2.28;;;25.40;97.20;;;;;;1694212;29;20254;-77
2022/08/01 07:41:58;;;;;;;1.80;1.70;;;25.40;97.20;;;;;;1694056;29;20211;-77
2022/08/01 07:42:49;;;;;;;4.13;2.07;;;25.40;97.20;;;;;;1694191;29;20488;-76
2022/08/01 07:43:40;;;;;;;2.70;2.50;;;25.40;97.20;;;;;;1694146;29;20668;-76
2022/08/01 07:44:32;;;;;;;2.33;2.07;;;25.50;97.20;;;;;;1694192;29;20899;-76
2022/08/01 07:45:26;;;;;;;2.30;2.10;;;25.50;97.20;;;;;;1694144;29;20208;-76
2022/08/01 07:46:17;;;;;;;2.20;2.00;;;25.50;97.20;;;;;;1693998;29;20451;-76
2022/08/01 07:47:09;;;;;;;3.93;2.20;;;25.50;97.20;;;;;;1693734;29;20459;-76
2022/08/01 07:48:04;;;;;;;2.20;1.90;;;25.50;97.20;;;;;;1693963;29;20470;-76
2022/08/01 07:48:54;;;;;;;1.98;1.88;;;25.50;97.20;;;;;;1694015;29;20494;-76
2022/08/01 07:49:46;;;;;;;3.73;1.90;;;25.50;97.20;;;;;;1694116;29;20259;-76
2022/08/01 07:50:38;;;;;;;2.70;2.30;;;25.50;97.20;;;;;;1693707;29;20227;-76
2022/08/01 07:51:30;;;;;;;2.20;2.00;;;25.60;97.20;;;;;;1694186;29;20452;-77
2022/08/01 07:52:21;;;;;;;4.07;2.00;;;25.60;97.20;;;;;;1694132;29;20487;-77
2022/08/01 07:53:13;;;;;;;2.27;2.10;;;25.60;97.20;;;;;;1694195;29;20447;-77
2022/08/01 07:54:04;;;;;;;2.33;2.20;;;25.60;97.20;;;;;;1694224;29;20216;-76
2022/08/01 07:54:56;;;;;;;2.60;2.40;;;25.60;97.20;;;;;;1694203;29;20490;-77
2022/08/01 07:55:47;;;;;;;2.20;2.00;;;25.70;97.20;;;;;;1694102;29;20208;-76
2022/08/01 07:56:38;;;;;;;2.67;1.97;;;25.70;97.20;;;;;;1693817;29;20512;-78
2022/08/01 07:57:30;;;;;;;2.50;2.20;;;25.70;97.20;;;;;;1694200;29;20499;-76
2022/08/01 07:58:21;;;;;;;1.80;1.70;;;25.80;97.20;;;;;;1694461;29;20199;-76
2022/08/01 07:59:13;;;;;;;2.40;2.20;;;25.80;97.20;;;;;;1693974;29;20578;-76
2022/08/01 08:00:05;;;;;;;2.50;2.30;;;25.80;97.20;;;;;;1694294;29;20448;-78
2022/08/01 08:00:57;;;;;;;2.63;2.30;;;25.80;97.20;;;;;;1694168;29;20214;-76
2022/08/01 08:01:49;;;;;;;2.72;2.33;;;25.80;97.20;;;;;;1694014;29;20587;-76
2022/08/01 08:02:41;;;;;;;2.90;2.60;;;25.90;97.20;;;;;;1694023;29;20281;-76
2022/08/01 08:03:31;;;;;;;2.50;2.23;;;25.90;97.20;;;;;;1694346;29;20448;-77
2022/08/01 08:04:23;;;;;;;2.40;2.20;;;25.90;97.20;;;;;;1694037;29;20523;-76
2022/08/01 08:05:15;;;;;;;2.60;2.40;;;25.90;97.20;;;;;;1694110;29;20447;-76
2022/08/01 08:06:07;;;;;;;2.50;2.30;;;25.90;97.20;;;;;;1694507;29;20456;-79
2022/08/01 08:06:59;;;;;;;2.72;2.53;;;26.00;97.20;;;;;;1693888;29;20785;-76
2022/08/01 08:07:50;;;;;;;2.50;2.20;;;26.00;97.20;;;;;;1693722;29;20196;-79
2022/08/01 08:08:41;;;;;;;2.77;2.57;;;26.00;97.20;;;;;;1694085;29;20456;-76
2022/08/01 08:09:32;;;;;;;2.43;2.23;;;26.00;97.20;;;;;;1694033;29;20447;-76
2022/08/01 08:10:24;;;;;;;2.97;2.70;;;26.00;97.20;;;;;;1694143;29;20542;-76
2022/08/01 08:11:15;;;;;;;2.70;2.50;;;26.00;97.20;;;;;;1694087;29;20451;-78
2022/08/01 08:12:07;;;;;;;2.90;2.70;;;26.00;97.20;;;;;;1694095;29;20450;-76
2022/08/01 08:12:58;;;;;;;3.03;2.83;;;26.00;97.20;;;;;;1694074;29;20204;-76
2022/08/01 08:13:50;;;;;;;3.07;2.87;;;26.00;97.20;;;;;;1694070;29;20448;-76
2022/08/01 08:14:40;;;;;;;2.90;2.70;;;26.00;97.20;;;;;;1694374;29;20665;-78
2022/08/01 08:15:32;;;;;;;3.63;2.87;;;26.00;97.20;;;;;;1694093;29;21168;-76
2022/08/01 08:16:23;;;;;;;2.80;2.57;;;26.10;97.20;;;;;;1694266;29;20247;-76
2022/08/01 08:17:15;;;;;;;2.43;2.23;;;26.10;97.20;;;;;;1693963;29;20563;-76
2022/08/01 08:18:06;;;;;;;3.35;2.63;;;26.10;97.20;;;;;;1694283;29;20712;-79
2022/08/01 08:18:57;;;;;;;2.60;2.37;;;26.20;97.20;;;;;;1693974;29;20681;-76
2022/08/01 08:19:48;;;;;;;5.43;2.43;;;26.20;97.20;;;;;;1694107;29;20944;-76
2022/08/01 08:20:40;;;;;;;3.03;2.73;;;26.20;97.20;;;;;;1694084;29;20828;-76
2022/08/01 08:21:32;;;;;;;3.42;3.13;;;26.30;97.20;;;;;;1694401;29;20200;-78
2022/08/01 08:22:24;;;;;;;3.20;2.90;;;26.30;97.20;;;;;;1694185;29;20687;-76
2022/08/01 08:24:26;;;;;;;2.97;2.67;;;26.30;97.20;;;;;;1694047;29;20492;-77
2022/08/01 08:25:18;;;;;;;4.30;2.93;;;26.30;97.20;;;;;;1694506;29;21175;-78
2022/08/01 08:26:10;;;;;;;3.30;2.87;;;26.30;97.20;;;;;;1694287;29;20443;-78
2022/08/01 08:27:02;;;;;;;2.83;2.63;;;26.30;97.20;;;;;;1694198;29;20460;-78
2022/08/01 08:27:53;;;;;;;2.83;2.60;;;26.30;97.20;;;;;;1694448;29;20447;-78
2022/08/01 08:28:46;;;;;;;4.43;3.30;;;26.40;97.20;;;;;;1694285;29;21024;-77
2022/08/01 08:29:38;;;;;;;3.97;3.20;;;26.40;97.20;;;;;;1693968;29;20293;-78
2022/08/01 08:30:28;;;;;;;4.57;2.77;;;26.30;97.20;;;;;;1694100;29;20463;-78
2022/08/01 08:31:20;;;;;;;3.07;2.80;;;26.30;97.20;;;;;;1693914;29;20523;-78
2022/08/01 08:32:11;;;;;;;3.20;2.90;;;26.30;97.20;;;;;;1694126;29;20219;-78
2022/08/01 08:33:03;;;;;;;3.80;2.80;;;26.30;97.20;;;;;;1694050;29;20451;-77
2022/08/01 08:33:54;;;;;;;3.30;2.60;;;26.30;97.20;;;;;;1694992;29;20448;-77
2022/08/01 08:34:46;;;;;;;3.60;3.20;;;26.30;97.20;;;;;;1695347;29;20534;-77
2022/08/01 08:35:40;;;;;;;3.20;2.90;;;26.30;97.20;;;;;;1695137;29;20448;-77
2022/08/01 08:36:33;;;;;;;3.20;3.00;;;26.30;97.20;;;;;;1695192;29;20452;-77
2022/08/01 08:37:25;;;;;;;4.47;3.13;;;26.30;97.20;;;;;;1695235;29;20440;-77
2022/08/01 08:38:15;;;;;;;5.50;3.07;;;26.30;97.20;;;;;;1695164;29;20822;-77
2022/08/01 08:39:07;;;;;;;3.20;2.67;;;26.30;97.20;;;;;;1695159;29;20554;-77
2022/08/01 08:39:58;;;;;;;3.00;2.80;;;26.30;97.20;;;;;;1694928;29;20207;-77
2022/08/01 08:40:50;;;;;;;3.27;2.90;;;26.30;97.20;;;;;;1694957;29;20482;-77
2022/08/01 08:41:41;;;;;;;3.17;2.87;;;26.30;97.20;;;;;;1695468;29;20594;-77
2022/08/01 08:42:34;;;;;;;3.03;2.42;;;26.30;97.20;;;;;;1695372;29;20809;-77
2022/08/01 08:43:25;;;;;;;2.90;2.70;;;26.40;97.20;;;;;;1695203;29;20212;-77
2022/08/01 08:44:19;;;;;;;3.00;2.70;;;26.40;97.20;;;;;;1695265;29;20940;-77
2022/08/01 08:45:10;;;;;;;3.63;3.07;;;26.40;97.20;;;;;;1695167;29;20204;-77
2022/08/01 08:46:03;;;;;;;3.43;3.00;;;26.40;97.20;;;;;;1695098;29;20455;-77
2022/08/01 08:46:55;;;;;;;3.07;2.60;;;26.30;97.20;;;;;;1694835;29;20456;-77
2022/08/01 08:47:48;;;;;;;5.57;2.90;;;26.30;97.20;;;;;;1695009;29;20470;-78
2022/08/01 08:48:40;;;;;;;11.10;3.20;;;26.30;97.20;;;;;;1695244;29;20204;-77
2022/08/01 08:49:33;;;;;;;4.73;3.23;;;26.30;97.20;;;;;;1695123;29;21007;-78
2022/08/01 08:50:25;;;;;;;8.33;3.13;;;26.40;97.20;;;;;;1695082;29;20463;-77
2022/08/01 08:51:19;;;;;;;3.63;3.07;;;26.40;97.20;;;;;;1695060;29;20956;-78
2022/08/01 08:52:12;;;;;;;4.40;3.53;;;26.40;97.20;;;;;;1695150;29;20455;-78
2022/08/01 08:53:04;;;;;;;3.73;2.80;;;26.40;97.20;;;;;;1695103;29;20444;-78
2022/08/01 08:53:56;;;;;;;3.30;2.70;;;26.40;97.20;;;;;;1695133;29;20447;-78
2022/08/01 08:54:48;;;;;;;2.83;2.63;;;26.40;97.20;;;;;;1695170;29;20451;-78
2022/08/01 08:55:42;;;;;;;2.87;2.67;;;26.40;97.20;;;;;;1695098;29;20451;-78
2022/08/01 08:56:35;;;;;;;3.33;3.03;;;26.40;97.20;;;;;;1694826;29;20462;-78
2022/08/01 08:57:27;;;;;;;3.13;2.93;;;26.40;97.20;;;;;;1694755;29;20483;-77
2022/08/01 08:58:19;;;;;;;3.17;2.97;;;26.40;97.20;;;;;;1694938;29;20499;-77
2022/08/01 08:59:13;;;;;;;3.43;3.13;;;26.40;97.20;;;;;;1695034;29;20570;-77
2022/08/01 09:00:05;;;;;;;3.43;3.10;;;26.40;97.20;;;;;;1694976;29;20819;-78
2022/08/01 09:00:57;;;;;;;3.37;3.07;;;26.40;97.20;;;;;;1695053;29;20546;-78
2022/08/01 09:01:48;;;;;;;2.90;2.70;;;26.40;97.20;;;;;;1695021;29;20456;-77
2022/08/01 09:02:43;;;;;;;3.47;3.17;;;26.40;97.20;;;;;;1695012;29;20535;-77
2022/08/01 09:03:33;;;;;;;3.17;2.50;;;26.40;97.20;;;;;;1695197;29;20211;-77
2022/08/01 09:04:26;;;;;;;3.30;3.00;;;26.40;97.20;;;;;;1695055;29;20444;-77
2022/08/01 09:05:18;;;;;;;3.23;3.03;;;26.40;97.20;;;;;;1695561;29;20454;-77
2022/08/01 09:06:10;;;;;;;4.73;3.40;;;26.40;97.20;;;;;;1696434;29;20458;-78
2022/08/01 09:07:03;;;;;;;4.23;3.37;;;26.40;97.20;;;;;;1695983;29;20448;-78
2022/08/01 09:07:56;;;;;;;3.60;3.20;;;26.50;97.20;;;;;;1696108;29;20458;-77
2022/08/01 09:08:47;;;;;;;3.73;3.43;;;26.50;97.20;;;;;;1696160;29;20448;-77
2022/08/01 09:09:39;;;;;;;3.47;3.17;;;26.50;97.20;;;;;;1695190;29;20486;-78
2022/08/01 09:10:30;;;;;;;3.70;3.40;;;26.60;97.20;;;;;;1694910;29;20231;-77
2022/08/01 09:11:21;;;;;;;3.40;3.10;;;26.60;97.20;;;;;;1695049;29;20535;-78
2022/08/01 09:12:16;;;;;;;3.20;3.00;;;26.60;97.20;;;;;;1695053;29;20204;-78
2022/08/01 09:13:10;;;;;;;3.60;3.40;;;26.70;97.20;;;;;;1694970;29;20454;-77
2022/08/01 09:14:06;;;;;;;3.97;3.67;;;26.70;97.20;;;;;;1694758;29;20600;-77
2022/08/01 09:14:58;;;;;;;3.90;3.60;;;26.70;97.20;;;;;;1695007;29;20446;-78
2022/08/01 09:15:53;;;;;;;3.30;3.10;;;26.60;97.20;;;;;;1695081;29;20454;-77
2022/08/01 09:16:46;;;;;;;4.00;3.70;;;26.60;97.20;;;;;;1694945;29;20448;-78
2022/08/01 09:17:40;;;;;;;4.10;3.70;;;26.60;97.20;;;;;;1695642;29;20924;-77
2022/08/01 09:18:34;;;;;;;5.33;3.50;;;26.60;97.20;;;;;;1695264;29;20908;-77
2022/08/01 09:19:33;;;;;;;4.43;3.90;;;26.60;97.20;;;;;;1694953;29;20455;-77
2022/08/01 09:20:25;;;;;;;3.90;3.60;;;26.60;97.20;;;;;;1694878;29;21018;-78
2022/08/01 09:21:19;;;;;;;4.30;4.00;;;26.60;97.20;;;;;;1694936;29;20460;-77
2022/08/01 09:22:12;;;;;;;3.87;3.57;;;26.70;97.20;;;;;;1694856;29;20464;-78
2022/08/01 09:23:04;;;;;;;4.00;3.70;;;26.70;97.20;;;;;;1695024;29;20451;-77
2022/08/01 09:23:58;;;;;;;4.30;3.87;;;26.70;97.20;;;;;;1694172;29;20455;-77
2022/08/01 09:25:04;;;;;;;3.83;3.53;;;26.70;97.20;;;;;;1694883;29;20829;-77
2022/08/01 09:25:56;;;;;;;3.67;3.40;;;26.70;97.20;;;;;;1694970;29;20456;-77
2022/08/01 09:26:48;;;;;;;5.03;3.90;;;26.80;97.20;;;;;;1694603;29;20447;-77
2022/08/01 09:27:39;;;;;;;3.83;3.53;;;26.80;97.20;;;;;;1694841;29;20460;-77
2022/08/01 09:28:33;;;;;;;4.27;3.90;;;26.80;97.20;;;;;;1694966;29;20452;-77
2022/08/01 09:29:26;;;;;;;4.30;3.90;;;26.80;97.20;;;;;;1694879;29;20450;-77
2022/08/01 09:30:19;;;;;;;4.07;3.67;;;26.80;97.20;;;;;;1694576;29;20459;-77
2022/08/01 09:31:11;;;;;;;4.77;4.37;;;26.80;97.20;;;;;;1693906;29;20949;-77